Flight Track Log - Related Links

Times and Time Zones

All times are in EDT time to prevent confusion due to time zone crossing. See the N1926A flight status page for this flight to view local times or setup timezone preferences in your user account.

Time Position Orientation Groundspeed Altitude Reporting Facility
EDT Latitude Longitude Course Direction KTS MPH feet Rate Location/Type
Sun 08:03:00 PM 32.4045 -86.1017 246° West  Level FlightAware
Sun 08:04:00 PM 32.3893 -86.1413 246° West  Level FlightAware
Sun 08:05:00 PM 32.3741 -86.1808 245° Southwest  Level FlightAware
Sun 08:06:00 PM 32.3639 -86.2213 235° Southwest  Level FlightAware
Sun 08:07:00 PM 32.3426 -86.2567 235° Southwest  Level FlightAware
Sun 08:08:00 PM 32.3214 -86.2922 235° Southwest  Level FlightAware
Sun 08:09:00 PM 32.3101 -86.3329 257° West  Level FlightAware
Sun 08:10:00 PM 32.3016 -86.3752 257° West  Level FlightAware
Sun 08:11:00 PM 32.3000 -86.3833 257° West  Level FlightAware
Sun 08:12:00 PM 32.3006 -86.3940 257° West  Level Estimated
Sun 08:13:00 PM 32.3006 -86.3940 257° West  Level Estimated
Sun 08:14:00 PM 32.3006 -86.3940 257° West  Level Estimated
Sun 08:15:00 PM 32.3006 -86.3940 257° West  Level Estimated
Sun 08:16:00 PM 32.3006 -86.3940 257° West  Level Estimated
Sun 08:17:00 PM 32.3006 -86.3940 257° West  Level Estimated
Sun 08:18:00 PM 32.3006 -86.3940 257° West  Level Estimated
Sun 08:19:00 PM 32.3006 -86.3940 257° West  Level Estimated
Sun 08:20:00 PM 32.3006 -86.3940 257° West  Level Estimated
Sun 08:21:00 PM 32.3006 -86.3940 257° West  Level Estimated
Sun 08:22:00 PM 32.3006 -86.3940 257° West  Level Estimated
Sun 08:23:00 PM 32.3006 -86.3940 257° West  Level Estimated
Sun 08:24:00 PM 32.3006 -86.3940 257° West  Level Estimated
Sun 08:25:00 PM 32.3006 -86.3940 257° West  Level Estimated
Sun 08:26:00 PM 32.3006 -86.3940 257° West  Level Estimated

Login

Don't have an account? Register now (free) for customized features, flight alerts, and more!